KGAI/GAI METAR and TAF weather

Enter ICAO airport designator
Station Type Date Time Source
KGAI METAR 2019/08/22 08:56 UTC NOAA

KGAI 220856Z AUTO 00000KT 3SM BR CLR 21/21 A2992 RMK AO2 SLP142 6//// T02060206 56009 PNO $


Station Type Date Time Source
KGAI Decoded METAR 2019/08/22 08:56 UTC NOAA

Station name not available
Aug 22, 2019 - 04:56 AM EDT / 2019.08.22 0856 UTC
Wind: Calm:0
Visibility: 3 mile(s):0
Sky conditions: clear
Weather: mist
Temperature: 69.1 F (20.6 C)
Dew Point: 69.1 F (20.6 C)
Relative Humidity: 100%
Pressure (altimeter): 29.92 in. Hg (1013 hPa)
Pressure tendency: 0.03 inches (0.9 hPa) lower than three hours ago
ob: KGAI 220856Z AUTO 00000KT 3SM BR CLR 21/21 A2992 RMK AO2 SLP142 6//// T02060206 56009 PNO
cycle: 9

Station Type Date Time Source
KGAI TAF UTC NOAA

Error!

Example: see airport list